Hébergeur de fichiers indépendant

StPardoux2019 30.gpx

À propos

Type de fichier
Fichier GPX de 87 Ko (application/xml)
Confidentialité
Fichier public, envoyé le 13 février 2019 à 14:19, depuis l'adresse IP 193.253.x.x (France)
Sécurité
Ne contient aucun Virus ou Malware connus - Dernière vérification: 6 heures
Statistiques
La présente page de téléchargement a été vue 103 fois depuis l'envoi du fichier
Page de téléchargement

Aperçu du fichier


<?xml version="1.0" encoding="UTF-8"?>
<gpx xmlns="http://www.topografix.com/GPX/1/1" xmlns:gpsies="https://www.gpsies.com/GPX/1/0" creator="GPSies https://www.gpsies.com - St Pardoux 30 2019" version="1.1" xmlns:xsi="http://www.w3.org/2001/XMLSchema-instance" xsi:schemaLocation="http://www.topografix.com/GPX/1/1 http://www.topografix.com/GPX/1/1/gpx.xsd https://www.gpsies.com/GPX/1/0 https://www.gpsies.com/gpsies.xsd">
  <metadata>
    <name>St Pardoux 30 2019</name>
    <link href="https://www.gpsies.com/">
      <text>St Pardoux 30 2019 on GPSies.com</text>
    </link>
    <time>2019-01-18T09:38:45Z</time>
  </metadata>
  <trk>
    <name>St Pardoux 30 2019 on GPSies.com</name>
    <trkseg>
      <trkpt lat="46.05798000" lon="1.281430000">
        <ele>370.00000</ele>
        <time>2019-01-10T15:09:31Z</time>
      </trkpt>
      <trkpt lat="46.05817000" lon="1.281910000">
        <ele>370.00000</ele>
        <time>2019-01-10T15:10:31Z</time>
      </trkpt>
      <trkpt lat="46.05802000" lon="1.282260000">
        <ele>370.00000</ele>
        <time>2019-01-10T15:11:31Z</time>
      </trkpt>
      <trkpt lat="46.05772000" lon="1.282580000">
        <ele>370.00000</ele>
        <time>2019-01-10T15:12:31Z</time>
      </trkpt>
      <trkpt lat="46.05732000" lon="1.282980000">
        <ele>373.00000</ele>
        <time>2019-01-10T15:13:31Z</time>
      </trkpt>
      <trkpt lat="46.05687000" lon="1.283140000">
        <ele>376.00000</ele>
        <time>2019-01-10T15:14:31Z</time>
      </trkpt>
      <trkpt lat="46.05646000" lon="1.283190000">
        <ele>376.00000</ele>
        <time>2019-01-10T15:15:31Z</time>
      </trkpt>
      <trkpt lat="46.05652000" lon="1.283920000">
        <ele>380.00000</ele>
        <time>2019-01-10T15:16:31Z</time>
      </trkpt>
      <trkpt lat="46.05645000" lon="1.284600000">
        <ele>382.00000</ele>
        <time>2019-01-10T15:17:31Z</time>
      </trkpt>
      <trkpt lat="46.05640000" lon="1.285080000">
        <ele>382.00000</ele>
        <time>2019-01-10T15:18:31Z</time>
      </trkpt>
      <trkpt lat="46.05623000" lon="1.285680000">
        <ele>381.00000</ele>
        <time>2019-01-10T15:19:31Z</time>
      </trkpt>
      <trkpt lat="46.05619000" lon="1.286550000">
        <ele>381.00000</ele>
        <time>2019-01-10T15:20:31Z</time>
      </trkpt>
      <trkpt lat="46.05624000" lon="1.287400000">
        <ele>381.00000</ele>
        <time>2019-01-10T15:21:31Z</time>
      </trkpt>
      <trkpt lat="46.05628000" lon="1.288000000">
        <ele>381.00000</ele>
        <time>2019-01-10T15:22:31Z</time>
      </trkpt>
      <trkpt lat="46.05620000" lon="1.288690000">
        <ele>382.00000</ele>
        <time>2019-01-10T15:23:31Z</time>
      </trkpt>
      <trkpt lat="46.05619000" lon="1.289370000">
        <ele>380.00000</ele>
        <time>2019-01-10T15:24:31Z</time>
      </trkpt>
      <trkpt lat="46.05618000" lon="1.290160000">
        <ele>380.00000</ele>
        <time>2019-01-10T15:25:31Z</time>
      </trkpt>
      <trkpt lat="46.05597000" lon="1.290690000">
        <ele>384.00000</ele>
        <time>2019-01-10T15:26:31Z</time>
      </trkpt>
      <trkpt lat="46.05590000" lon="1.291000000">
        <ele>385.00000</ele>
        <time>2019-01-10T15:27:31Z</time>
      </trkpt>
      <trkpt lat="46.05584000" lon="1.291820000">
        <ele>386.00000</ele>
        <time>2019-01-10T15:28:31Z</time>
      </trkpt>
      <trkpt lat="46.05580000" lon="1.292440000">
        <ele>387.00000</ele>
        <time>2019-01-10T15:29:31Z</time>
      </trkpt>
      <trkpt lat="46.05585000" lon="1.293810000">
        <ele>388.00000</ele>
        <time>2019-01-10T15:30:31Z</time>
      </trkpt>
      <trkpt lat="46.05586000" lon="1.295780000">
        <ele>396.00000</ele>
        <time>2019-01-10T15:31:31Z</time>
      </trkpt>
      <trkpt lat="46.05625000" lon="1.296150000">
        <ele>395.00000</ele>
        <time>2019-01-10T15:32:31Z</time>
      </trkpt>
      <trkpt lat="46.05632000" lon="1.296820000">
        <ele>399.00000</ele>
        <time>2019-01-10T15:33:31Z</time>
      </trkpt>
      <trkpt lat="46.05633000" lon="1.297350000">
        <ele>401.00000</ele>
        <time>2019-01-10T15:34:31Z</time>
      </trkpt>
      <trkpt lat="46.05644000" lon="1.298080000">
        <ele>402.00000</ele>
        <time>2019-01-10T15:35:31Z</time>
      </trkpt>
      <trkpt lat="46.05644000" lon="1.298480000">
        <ele>403.00000</ele>
        <time>2019-01-10T15:36:31Z</time>
      </trkpt>
      <trkpt lat="46.05660000" lon="1.299030000">
        <ele>404.00000</ele>
        <time>2019-01-10T15:37:31Z</time>
      </trkpt>
      <trkpt lat="46.05669000" lon="1.299430000">
        <ele>405.00000</ele>
        <time>2019-01-10T15:38:31Z</time>
      </trkpt>
      <trkpt lat="46.05689000" lon="1.299860000">
        <ele>405.00000</ele>
        <time>2019-01-10T15:39:31Z</time>
      </trkpt>
      <trkpt lat="46.05731000" lon="1.300330000">
        <ele>405.00000</ele>
        <time>2019-01-10T15:40:31Z</time>
      </trkpt>
      <trkpt lat="46.05744000" lon="1.300490000">
        <ele>406.00000</ele>
        <time>2019-01-10T15:41:31Z</time>
      </trkpt>
      <trkpt lat="46.05834000" lon="1.299830000">
        <ele>407.00000</ele>
        <time>2019-01-10T15:42:31Z</time>
      </trkpt>
      <trkpt lat="46.05887000" lon="1.299570000">
        <ele>404.00000</ele>
        <time>2019-01-10T15:43:31Z</time>
      </trkpt>
      <trkpt lat="46.05907000" lon="1.299540000">
        <ele>403.00000</ele>
        <time>2019-01-10T15:44:31Z</time>
      </trkpt>
      <trkpt lat="46.05936000" lon="1.299280000">
        <ele>400.00000</ele>
        <time>2019-01-10T15:45:31Z</time>
      </trkpt>
      <trkpt lat="46.05967000" lon="1.299600000">
        <ele>402.00000</ele>
        <time>2019-01-10T15:46:31Z</time>
      </trkpt>
      <trkpt lat="46.05991000" lon="1.299780000">
        <ele>402.00000</ele>
        <time>2019-01-10T15:47:31Z</time>
      </trkpt>
      <trkpt lat="46.06016000" lon="1.299680000">
        <ele>400.00000</ele>
        <time>2019-01-10T15:48:31Z</time>
      </trkpt>
      <trkpt lat="46.06038000" lon="1.299620000">
        <ele>399.00000</ele>
        <time>2019-01-10T15:49:31Z</time>
      </trkpt>
      <trkpt lat="46.06064000" lon="1.299620000">
        <ele>398.00000</ele>
        <time>2019-01-10T15:50:31Z</time>
      </trkpt>
      <trkpt lat="46.06158000" lon="1.299560000">
        <ele>395.00000</ele>
        <time>2019-01-10T15:51:31Z</time>
      </trkpt>
      <trkpt lat="46.06219000" lon="1.299510000">
        <ele>393.00000</ele>
        <time>2019-01-10T15:52:31Z</time>
      </trkpt>
      <trkpt lat="46.06283000" lon="1.299220000">
        <ele>393.00000</ele>
        <time>2019-01-10T15:53:31Z</time>
      </trkpt>
      <trkpt lat="46.06314000" lon="1.298990000">
        <ele>393.00000</ele>
        <time>2019-01-10T15:54:31Z</time>
      </trkpt>
      <trkpt lat="46.06332000" lon="1.299130000">
        <ele>394.00000</ele>
        <time>2019-01-10T15:55:31Z</time>
      </trkpt>
      <trkpt lat="46.06379000" lon="1.299590000">
        <ele>391.00000</ele>
        <time>2019-01-10T15:56:31Z</time>
      </trkpt>
      <trkpt lat="46.06397000" lon="1.299960000">
        <ele>390.00000</ele>
        <time>2019-01-10T15:57:31Z</time>
      </trkpt>
      <trkpt lat="46.06426000" lon="1.300880000">
        <ele>392.00000</ele>
        <time>2019-01-10T15:58:31Z</time>
      </trkpt>
      <trkpt lat="46.06433000" lon="1.301940000">
        <ele>395.00000</ele>
        <time>2019-01-10T15:59:31Z</time>
      </trkpt>
      <trkpt lat="46.06438000" lon="1.302440000">
        <ele>395.00000</ele>
        <time>2019-01-10T16:00:31Z</time>
      </trkpt>
      <trkpt lat="46.06465000" lon="1.303360000">
        <ele>394.00000</ele>
        <time>2019-01-10T16:01:31Z</time>
      </trkpt>
      <trkpt lat="46.06474000" lon="1.303820000">
        <ele>395.00000</ele>
        <time>2019-01-10T16:02:31Z</time>
      </trkpt>
      <trkpt lat="46.06475000" lon="1.304190000">
        <ele>396.00000</ele>
        <time>2019-01-10T16:03:31Z</time>
      </trkpt>
      <trkpt lat="46.06472000" lon="1.304870000">
        <ele>397.00000</ele>
        <time>2019-01-10T16:04:31Z</time>
      </trkpt>
      <trkpt lat="46.06474000" lon="1.305200000">
        <ele>397.00000</ele>
        <time>2019-01-10T16:05:31Z</time>
      </trkpt>
      <trkpt lat="46.06534000" lon="1.305700000">
        <ele>395.00000</ele>
        <time>2019-01-10T16:06:31Z</time>
      </trkpt>
      <trkpt lat="46.06576000" lon="1.306160000">
        <ele>395.00000</ele>
        <time>2019-01-10T16:07:31Z</time>
      </trkpt>
      <trkpt lat="46.06597000" lon="1.306410000">
        <ele>396.00000</ele>
        <time>2019-01-10T16:08:31Z</time>
      </trkpt>
      <trkpt lat="46.06629000" lon="1.306450000">
        <ele>400.00000</ele>
        <time>2019-01-10T16:09:31Z</time>
      </trkpt>
      <trkpt lat="46.06659000" lon="1.306440000">
        <ele>403.00000</ele>
        <time>2019-01-10T16:10:31Z</time>
      </trkpt>
      <trkpt lat="46.06697000" lon="1.306320000">
        <ele>405.00000</ele>
        <time>2019-01-10T16:11:31Z</time>
      </trkpt>
      <trkpt lat="46.06728000" lon="1.306270000">
        <ele>406.00000</ele>
        <time>2019-01-10T16:12:31Z</time>
      </trkpt>
      <trkpt lat="46.06803000" lon="1.306480000">
        <ele>407.00000</ele>
        <time>2019-01-10T16:13:31Z</time>
      </trkpt>
      <trkpt lat="46.06865000" lon="1.306710000">
        <ele>408.00000</ele>
        <time>2019-01-10T16:14:31Z</time>
      </trkpt>
      <trkpt lat="46.06932000" lon="1.306960000">
        <ele>409.00000</ele>
        <time>2019-01-10T16:15:31Z</time>
      </trkpt>
      <trkpt lat="46.06972000" lon="1.307080000">
        <ele>410.00000</ele>
        <time>2019-01-10T16:16:31Z</time>
      </trkpt>
      <trkpt lat="46.07125000" lon="1.307020000">
        <ele>407.00000</ele>
        <time>2019-01-10T16:17:31Z</time>
      </trkpt>
      <trkpt lat="46.07259000" lon="1.306800000">
        <ele>407.00000</ele>
        <time>2019-01-10T16:18:31Z</time>
      </trkpt>
      <trkpt lat="46.07411000" lon="1.307480000">
        <ele>405.00000</ele>
        <time>2019-01-10T16:19:31Z</time>
      </trkpt>
      <trkpt lat="46.07567000" lon="1.308170000">
        <ele>403.00000</ele>
        <time>2019-01-10T16:20:31Z</time>
      </trkpt>
      <trkpt lat="46.07622000" lon="1.308610000">
        <ele>401.00000</ele>
        <time>2019-01-10T16:21:31Z</time>
      </trkpt>
      <trkpt lat="46.07651000" lon="1.309190000">
        <ele>399.00000</ele>
        <time>2019-01-10T16:22:31Z</time>
      </trkpt>
      <trkpt lat="46.07670000" lon="1.309480000">
        <ele>398.00000</ele>
        <time>2019-01-10T16:23:31Z</time>
      </trkpt>
      <trkpt lat="46.07689000" lon="1.310000000">
        <ele>396.00000</ele>
        <time>2019-01-10T16:24:31Z</time>
      </trkpt>
      <trkpt lat="46.07710000" lon="1.310610000">
        <ele>393.00000</ele>
        <time>2019-01-10T16:25:31Z</time>
      </trkpt>
      <trkpt lat="46.07724000" lon="1.311110000">
        <ele>390.00000</ele>
        <time>2019-01-10T16:26:31Z</time>
      </trkpt>
      <trkpt lat="46.07741000" lon="1.311830000">
        <ele>390.00000</ele>
        <time>2019-01-10T16:27:31Z</time>
      </trkpt>
      <trkpt lat="46.07743000" lon="1.312230000">
        <ele>390.00000</ele>
        <time>2019-01-10T16:28:31Z</time>
      </trkpt>
      <trkpt lat="46.07793000" lon="1.312030000">
        <ele>392.00000</ele>
        <time>2019-01-10T16:29:31Z</time>
      </trkpt>
      <trkpt lat="46.07844000" lon="1.312010000">
        <ele>393.00000</ele>
        <time>2019-01-10T16:30:31Z</time>
      </trkpt>
      <trkpt lat="46.07884000" lon="1.312140000">
        <ele>392.00000</ele>
        <time>2019-01-10T16:31:31Z</time>
      </trkpt>
      <trkpt lat="46.07942000" lon="1.312740000">
        <ele>394.00000</ele>
        <time>2019-01-10T16:32:31Z</time>
      </trkpt>
      <trkpt lat="46.08045000" lon="1.313970000">
        <ele>401.00000</ele>
        <time>2019-01-10T16:33:31Z</time>
      </trkpt>
      <trkpt lat="46.08091000" lon="1.314420000">
        <ele>403.00000</ele>
        <time>2019-01-10T16:34:31Z</time>
      </trkpt>
      <trkpt lat="46.08226000" lon="1.315310000">
        <ele>406.00000</ele>
        <time>2019-01-10T16:35:31Z</time>
      </trkpt>
      <trkpt lat="46.08332000" lon="1.315950000">
        <ele>403.00000</ele>
        <time>2019-01-10T16:36:31Z</time>
      </trkpt>
      <trkpt lat="46.08427000" lon="1.316270000">
        <ele>393.00000</ele>
        <time>2019-01-10T16:37:31Z</time>
      </trkpt>
      <trkpt lat="46.08463000" lon="1.316520000">
        <ele>388.00000</ele>
        <time>2019-01-10T16:38:31Z</time>
      </trkpt>
      <trkpt lat="46.08485000" lon="1.317720000">
        <ele>380.00000</ele>
        <time>2019-01-10T16:39:31Z</time>
      </trkpt>
      <trkpt lat="46.08510000" lon="1.318910000">
        <ele>374.00000</ele>
        <time>2019-01-10T16:40:31Z</time>
      </trkpt>
      <trkpt lat="46.08619000" lon="1.320870000">
        <ele>358.00000</ele>
        <time>2019-01-10T16:41:31Z</time>
      </trkpt>
      <trkpt lat="46.08686000" lon="1.322140000">
        <ele>348.00000</ele>
        <time>2019-01-10T16:42:31Z</time>
      </trkpt>
      <trkpt lat="46.08689000" lon="1.322660000">
        <ele>346.00000</ele>
        <time>2019-01-10T16:43:31Z</time>
      </trkpt>
      <trkpt lat="46.08700000" lon="1.322970000">
        <ele>344.00000</ele>
        <time>2019-01-10T16:44:31Z</time>
      </trkpt>
      <trkpt lat="46.08774000" lon="1.324010000">
        <ele>339.00000</ele>
        <time>2019-01-10T16:45:31Z</time>
      </trkpt>
      <trkpt lat="46.08791000" lon="1.324650000">
        <ele>336.00000</ele>
        <time>2019-01-10T16:46:31Z</time>
      </trkpt>
      <trkpt lat="46.08832000" lon="1.325420000">
        <ele>334.00000</ele>
        <time>2019-01-10T16:47:31Z</time>
      </trkpt>
      <trkpt lat="46.08873000" lon="1.325550000">
        <ele>334.00000</ele>
        <time>2019-01-10T16:48:31Z</time>
      </trkpt>
      <trkpt lat="46.08913000" lon="1.325380000">
        <ele>333.00000</ele>
        <time>2019-01-10T16:49:31Z</time>
      </trkpt>
      <trkpt lat="46.08955000" lon="1.324950000">
        <ele>336.00000</ele>
        <time>2019-01-10T16:50:31Z</time>
      </trkpt>
      <trkpt lat="46.09018000" lon="1.325410000">
        <ele>343.00000</ele>
        <time>2019-01-10T16:51:31Z</time>
      </trkpt>
      <trkpt lat="46.09055000" lon="1.325690000">
        <ele>345.00000</ele>
        <time>2019-01-10T16:52:31Z</time>
      </trkpt>
      <trkpt lat="46.09070000" lon="1.326000000">
        <ele>346.00000</ele>
        <time>2019-01-10T16:53:31Z</time>
      </trkpt>
      <trkpt lat="46.09090000" lon="1.326420000">
        <ele>346.00000</ele>
        <time>2019-01-10T16:54:31Z</time>
      </trkpt>
      <trkpt lat="46.09103000" lon="1.326910000">
        <ele>346.00000</ele>
        <time>2019-01-10T16:55:31Z</time>
      </trkpt>
      <trkpt lat="46.09121000" lon="1.327240000">
        <ele>345.00000</ele>
        <time>2019-01-10T16:56:31Z</time>
      </trkpt>
      <trkpt lat="46.09178000" lon="1.328210000">
        <ele>345.00000</ele>
        <time>2019-01-10T16:57:31Z</time>
      </trkpt>
      <trkpt lat="46.09364000" lon="1.330040000">
        <ele>352.00000</ele>
        <time>2019-01-10T16:58:31Z</time>
      </trkpt>
      <trkpt lat="46.09646000" lon="1.332100000">
        <ele>352.00000</ele>
        <time>2019-01-10T16:59:31Z</time>
      </trkpt>
      <trkpt lat="46.09521000" lon="1.333520000">
        <ele>362.00000</ele>
        <time>2019-01-10T17:00:31Z</time>
      </trkpt>
      <trkpt lat="46.09431000" lon="1.333980000">
        <ele>366.00000</ele>
        <time>2019-01-10T17:01:31Z</time>
      </trkpt>
      <trkpt lat="46.09357000" lon="1.334650000">
        <ele>372.00000</ele>
        <time>2019-01-10T17:02:31Z</time>
      </trkpt>
      <trkpt lat="46.09307000" lon="1.335130000">
        <ele>376.00000</ele>
        <time>2019-01-10T17:03:31Z</time>
      </trkpt>
      <trkpt lat="46.09288000" lon="1.335450000">
        <ele>377.00000</ele>
        <time>2019-01-10T17:04:31Z</time>
      </trkpt>
      <trkpt lat="46.09274000" lon="1.335930000">
        <ele>381.00000</ele>
        <time>2019-01-10T17:05:31Z</time>
      </trkpt>
      <trkpt lat="46.09255000" lon="1.336300000">
        <ele>385.00000</ele>
        <time>2019-01-10T17:06:31Z</time>
      </trkpt>
      <trkpt lat="46.09205000" lon="1.336390000">
        <ele>387.00000</ele>
        <time>2019-01-10T17:07:31Z</time>
      </trkpt>
      <trkpt lat="46.09129000" lon="1.336420000">
        <ele>389.00000</ele>
        <time>2019-01-10T17:08:31Z</time>
      </trkpt>
      <trkpt lat="46.09140000" lon="1.338470000">
        <ele>399.00000</ele>
        <time>2019-01-10T17:09:31Z</time>
      </trkpt>
      <trkpt lat="46.09161000" lon="1.338330000">
        <ele>399.00000</ele>
        <time>2019-01-10T17:10:31Z</time>
      </trkpt>
      <trkpt lat="46.09221000" lon="1.337970000">
        <ele>397.00000</ele>
        <time>2019-01-10T17:11:31Z</time>
      </trkpt>
      <trkpt lat="46.09392000" lon="1.338310000">
        <ele>404.00000</ele>
        <time>2019-01-10T17:12:31Z</time>
      </trkpt>
      <trkpt lat="46.09447000" lon="1.338620000">
        <ele>405.00000</ele>
        <time>2019-01-10T17:13:31Z</time>
      </trkpt>
      <trkpt lat="46.09515000" lon="1.338590000">
        <ele>406.00000</ele>
        <time>2019-01-10T17:14:31Z</time>
      </trkpt>
      <trkpt lat="46.09547000" lon="1.338940000">
        <ele>405.00000</ele>
        <time>2019-01-10T17:15:31Z</time>
      </trkpt>
      <trkpt lat="46.09591000" lon="1.339070000">
        <ele>405.00000</ele>
        <time>2019-01-10T17:16:31Z</time>
      </trkpt>
      <trkpt lat="46.09646000" lon="1.338810000">
        <ele>400.00000</ele>
        <time>2019-01-10T17:17:31Z</time>
      </trkpt>
      <trkpt lat="46.09694000" lon="1.339150000">
        <ele>396.00000</ele>
        <time>2019-01-10T17:18:31Z</time>
      </trkpt>
      <trkpt lat="46.09725000" lon="1.340470000">
        <ele>390.00000</ele>
        <time>2019-01-10T17:19:31Z</time>
      </trkpt>
      <trkpt lat="46.09723000" lon="1.341080000">
        <ele>388.00000</ele>
        <time>2019-01-10T17:20:31Z</time>
      </trkpt>
      <trkpt lat="46.09705000" lon="1.341620000">
        <ele>388.00000</ele>
        <time>2019-01-10T17:21:31Z</time>
      </trkpt>
      <trkpt lat="46.09689000" lon="1.342000000">
        <ele>390.00000</ele>
        <time>2019-01-10T17:22:31Z</time>
      </trkpt>
      <trkpt lat="46.09670000" lon="1.342410000">
        <ele>393.00000</ele>
        <time>2019-01-10T17:23:31Z</time>
      </trkpt>
      <trkpt lat="46.09655000" lon="1.342770000">
        <ele>394.00000</ele>
        <time>2019-01-10T17:24:31Z</time>
      </trkpt>
      <trkpt lat="46.09633000" lon="1.343050000">
        <ele>393.00000</ele>
        <time>2019-01-10T17:25:31Z</time>
      </trkpt>
      <trkpt lat="46.09606000" lon="1.343200000">
        <ele>391.00000</ele>
        <time>2019-01-10T17:26:31Z</time>
      </trkpt>
      <trkpt lat="46.09580000" lon="1.343460000">
        <ele>390.00000</ele>
        <time>2019-01-10T17:27:31Z</time>
      </trkpt>
      <trkpt lat="46.09564000" lon="1.343610000">
        <ele>388.00000</ele>
        <time>2019-01-10T17:28:31Z</time>
      </trkpt>
      <trkpt lat="46.09545000" lon="1.343790000">
        <ele>385.00000</ele>
        <time>2019-01-10T17:29:31Z</time>
      </trkpt>
      <trkpt lat="46.09537000" lon="1.344120000">
        <ele>385.00000</ele>
        <time>2019-01-10T17:30:31Z</time>
      </trkpt>
      <trkpt lat="46.09513000" lon="1.344250000">
        <ele>381.00000</ele>
        <time>2019-01-10T17:31:31Z</time>
      </trkpt>
      <trkpt lat="46.09482000" lon="1.344260000">
        <ele>377.00000</ele>
        <time>2019-01-10T17:32:31Z</time>
      </trkpt>
      <trkpt lat="46.09453000" lon="1.344070000">
        <ele>374.00000</ele>
        <time>2019-01-10T17:33:31Z</time>
      </trkpt>
      <trkpt lat="46.09445000" lon="1.343920000">
        <ele>373.00000</ele>
        <time>2019-01-10T17:34:31Z</time>
      </trkpt>
      <trkpt lat="46.09432000" lon="1.344110000">
        <ele>372.00000</ele>
        <time>2019-01-10T17:35:31Z</time>
      </trkpt>
      <trkpt lat="46.09420000" lon="1.344420000">
        <ele>369.00000</ele>
        <time>2019-01-10T17:36:31Z</time>
      </trkpt>
      <trkpt lat="46.09415000" lon="1.344760000">
        <ele>368.00000</ele>
        <time>2019-01-10T17:37:31Z</time>
      </trkpt>
      <trkpt lat="46.09418000" lon="1.345110000">
        <ele>366.00000</ele>
        <time>2019-01-10T17:38:31Z</time>
      </trkpt>
      <trkpt lat="46.09444000" lon="1.345530000">
        <ele>364.00000</ele>
        <time>2019-01-10T17:39:31Z</time>
      </trkpt>
      <trkpt lat="46.09465000" lon="1.345920000">
        <ele>363.00000</ele>
        <time>2019-01-10T17:40:31Z</time>
      </trkpt>
      <trkpt lat="46.09495000" lon="1.346270000">
        <ele>362.00000</ele>
        <time>2019-01-10T17:41:31Z</time>
      </trkpt>
      <trkpt lat="46.09510000" lon="1.346470000">
        <ele>361.00000</ele>
        <time>2019-01-10T17:42:31Z</time>
      </trkpt>
      <trkpt lat="46.09512000" lon="1.346610000">
        <ele>360.00000</ele>
        <time>2019-01-10T17:43:31Z</time>
      </trkpt>
      <trkpt lat="46.09505000" lon="1.346660000">
        <ele>358.00000</ele>
        <time>2019-01-10T17:44:31Z</time>
      </trkpt>
      <trkpt lat="46.09494000" lon="1.346680000">
        <ele>357.00000</ele>
        <time>2019-01-10T17:45:31Z</time>
      </trkpt>
      <trkpt lat="46.09478000" lon="1.346650000">
        <ele>356.00000</ele>
        <time>2019-01-10T17:46:31Z</time>
      </trkpt>
      <trkpt lat="46.09465000" lon="1.346780000">
        <ele>354.00000</ele>
        <time>2019-01-10T17:47:31Z</time>
      </trkpt>
      <trkpt lat="46.09456000" lon="1.347080000">
        <ele>350.00000</ele>
        <time>2019-01-10T17:48:31Z</time>
      </trkpt>
      <trkpt lat="46.09449000" lon="1.347500000">
        <ele>345.00000</ele>
        <time>2019-01-10T17:49:31Z</time>
      </trkpt>
      <trkpt lat="46.09443000" lon="1.347750000">
        <ele>343.00000</ele>
        <time>2019-01-10T17:50:31Z</time>
      </trkpt>
      <trkpt lat="46.09431000" lon="1.347970000">
        <ele>341.00000</ele>
        <time>2019-01-10T17:51:31Z</time>
      </trkpt>
      <trkpt lat="46.09415000" lon="1.348160000">
        <ele>339.00000</ele>
        <time>2019-01-10T17:52:31Z</time>
      </trkpt>
      <trkpt lat="46.09402000" lon="1.348040000">
        <ele>339.00000</ele>
        <time>2019-01-10T17:53:31Z</time>
      </trkpt>
      <trkpt lat="46.09393000" lon="1.347640000">
        <ele>341.00000</ele>
        <time>2019-01-10T17:54:31Z</time>
      </trkpt>
      <trkpt lat="46.09383000" lon="1.347460000">
        <ele>342.00000</ele>
        <time>2019-01-10T17:55:31Z</time>
      </trkpt>
      <trkpt lat="46.09360000" lon="1.347550000">
        <ele>340.00000</ele>
        <time>2019-01-10T17:56:31Z</time>
      </trkpt>
      <trkpt lat="46.09338000" lon="1.347620000">
        <ele>339.00000</ele>
        <time>2019-01-10T17:57:31Z</time>
      </trkpt>
      <trkpt lat="46.09319000" lon="1.347660000">
        <ele>338.00000</ele>
        <time>2019-01-10T17:58:31Z</time>
      </trkpt>
      <trkpt lat="46.09297000" lon="1.347640000">
        <ele>338.00000</ele>
        <time>2019-01-10T17:59:31Z</time>
      </trkpt>
      <trkpt lat="46.09277000" lon="1.347640000">
        <ele>337.00000</ele>
        <time>2019-01-10T18:00:31Z</time>
      </trkpt>
      <trkpt lat="46.09265000" lon="1.347540000">
        <ele>337.00000</ele>
        <time>2019-01-10T18:01:31Z</time>
      </trkpt>
      <trkpt lat="46.09255000" lon="1.347340000">
        <ele>337.00000</ele>
        <time>2019-01-10T18:02:31Z</time>
      </trkpt>
      <trkpt lat="46.09246000" lon="1.347130000">
        <ele>338.00000</ele>
        <time>2019-01-10T18:03:31Z</time>
      </trkpt>
      <trkpt lat="46.09237000" lon="1.346870000">
        <ele>339.00000</ele>
        <time>2019-01-10T18:04:31Z</time>
      </trkpt>
      <trkpt lat="46.09224000" lon="1.346590000">
        <ele>340.00000</ele>
        <time>2019-01-10T18:05:31Z</time>
      </trkpt>
      <trkpt lat="46.09214000" lon="1.346510000">
        <ele>340.00000</ele>
        <time>2019-01-10T18:06:31Z</time>
      </trkpt>
      <trkpt lat="46.09188000" lon="1.346490000">
        <ele>339.00000</ele>
        <time>2019-01-10T18:07:31Z</time>
      </trkpt>
      <trkpt lat="46.09169000" lon="1.346550000">
        <ele>338.00000</ele>
        <time>2019-01-10T18:08:31Z</time>
      </trkpt>
      <trkpt lat="46.09151000" lon="1.346620000">
        <ele>339.00000</ele>
        <time>2019-01-10T18:09:31Z</time>
      </trkpt>
      <trkpt lat="46.09143000" lon="1.346730000">
        <ele>340.00000</ele>
        <time>2019-01-10T18:10:31Z</time>
      </trkpt>
      <trkpt lat="46.09135000" lon="1.346970000">
        <ele>342.00000</ele>
        <time>2019-01-10T18:11:31Z</time>
      </trkpt>
      <trkpt lat="46.09141000" lon="1.347230000">
        <ele>342.00000</ele>
        <time>2019-01-10T18:12:31Z</time>
      </trkpt>
      <trkpt lat="46.09157000" lon="1.347630000">
        <ele>340.00000</ele>
        <time>2019-01-10T18:13:31Z</time>
      </trkpt>
      <trkpt lat="46.09168000" lon="1.347950000">
        <ele>340.00000</ele>
        <time>2019-01-10T18:14:31Z</time>
      </trkpt>
      <trkpt lat="46.09177000" lon="1.348330000">
        <ele>342.00000</ele>
        <time>2019-01-10T18:15:31Z</time>
      </trkpt>
      <trkpt lat="46.09187000" lon="1.348590000">
        <ele>342.00000</ele>
        <time>2019-01-10T18:16:31Z</time>
      </trkpt>
      <trkpt lat="46.09199000" lon="1.348730000">
        <ele>341.00000</ele>
        <time>2019-01-10T18:17:31Z</time>
      </trkpt>
      <trkpt lat="46.09218000" lon="1.348850000">
        <ele>340.00000</ele>
        <time>2019-01-10T18:18:31Z</time>
      </trkpt>
      <trkpt lat="46.09237000" lon="1.348930000">
        <ele>339.00000</ele>
        <time>2019-01-10T18:19:31Z</time>
      </trkpt>
      <trkpt lat="46.09256000" lon="1.348970000">
        <ele>337.00000</ele>
        <time>2019-01-10T18:20:31Z</time>
      </trkpt>
      <trkpt lat="46.09271000" lon="1.349160000">
        <ele>337.00000</ele>
        <time>2019-01-10T18:21:31Z</time>
      </trkpt>
      <trkpt lat="46.09282000" lon="1.349360000">
        <ele>339.00000</ele>
        <time>2019-01-10T18:22:31Z</time>
      </trkpt>
      <trkpt lat="46.09292000" lon="1.349760000">
        <ele>343.00000</ele>
        <time>2019-01-10T18:23:31Z</time>
      </trkpt>
      <trkpt lat="46.09301000" lon="1.349940000">
        <ele>344.00000</ele>
        <time>2019-01-10T18:24:31Z</time>
      </trkpt>
      <trkpt lat="46.09323000" lon="1.350170000">
        <ele>341.00000</ele>
        <time>2019-01-10T18:25:31Z</time>
      </trkpt>
      <trkpt lat="46.09347000" lon="1.350470000">
        <ele>341.00000</ele>
        <time>2019-01-10T18:26:31Z</time>
      </trkpt>
      <trkpt lat="46.09363000" lon="1.350650000">
        <ele>340.00000</ele>
        <time>2019-01-10T18:27:31Z</time>
      </trkpt>
      <trkpt lat="46.09367000" lon="1.350960000">
        <ele>340.00000</ele>
        <time>2019-01-10T18:28:31Z</time>
      </trkpt>
      <trkpt lat="46.09374000" lon="1.351220000">
        <ele>339.00000</ele>
        <time>2019-01-10T18:29:31Z</time>
      </trkpt>
      <trkpt lat="46.09387000" lon="1.351610000">
        <ele>338.00000</ele>
        <time>2019-01-10T18:30:31Z</time>
      </trkpt>
      <trkpt lat="46.09399000" lon="1.351800000">
        <ele>337.00000</ele>
        <time>2019-01-10T18:31:31Z</time>
      </trkpt>
      <trkpt lat="46.09411000" lon="1.351700000">
        <ele>336.00000</ele>
        <time>2019-01-10T18:32:31Z</time>
      </trkpt>
      <trkpt lat="46.09431000" lon="1.351510000">
        <ele>336.00000</ele>
        <time>2019-01-10T18:33:31Z</time>
      </trkpt>
      <trkpt lat="46.09480000" lon="1.351370000">
        <ele>336.00000</ele>
        <time>2019-01-10T18:34:31Z</time>
      </trkpt>
      <trkpt lat="46.09524000" lon="1.351290000">
        <ele>336.00000</ele>
        <time>2019-01-10T18:35:31Z</time>
      </trkpt>
      <trkpt lat="46.09562000" lon="1.351310000">
        <ele>337.00000</ele>
        <time>2019-01-10T18:36:31Z</time>
      </trkpt>
      <trkpt lat="46.09601000" lon="1.351460000">
        <ele>338.00000</ele>
        <time>2019-01-10T18:37:31Z</time>
      </trkpt>
      <trkpt lat="46.09646000" lon="1.351630000">
        <ele>339.00000</ele>
        <time>2019-01-10T18:38:31Z</time>
      </trkpt>
      <trkpt lat="46.09688000" lon="1.351790000">
        <ele>338.00000</ele>
        <time>2019-01-10T18:39:31Z</time>
      </trkpt>
      <trkpt lat="46.09701000" lon="1.352010000">
        <ele>338.00000</ele>
        <time>2019-01-10T18:40:31Z</time>
      </trkpt>
      <trkpt lat="46.09709000" lon="1.352330000">
        <ele>338.00000</ele>
        <time>2019-01-10T18:41:31Z</time>
      </trkpt>
      <trkpt lat="46.09711000" lon="1.352770000">
        <ele>339.00000</ele>
        <time>2019-01-10T18:42:31Z</time>
      </trkpt>
      <trkpt lat="46.09717000" lon="1.352960000">
        <ele>340.00000</ele>
        <time>2019-01-10T18:43:31Z</time>
      </trkpt>
      <trkpt lat="46.09732000" lon="1.352980000">
        <ele>339.00000</ele>
        <time>2019-01-10T18:44:31Z</time>
      </trkpt>
      <trkpt lat="46.09747000" lon="1.352780000">
        <ele>338.00000</ele>
        <time>2019-01-10T18:45:31Z</time>
      </trkpt>
      <trkpt lat="46.09764000" lon="1.352610000">
        <ele>336.00000</ele>
        <time>2019-01-10T18:46:31Z</time>
      </trkpt>
      <trkpt lat="46.09794000" lon="1.352490000">
        <ele>335.00000</ele>
        <time>2019-01-10T18:47:31Z</time>
      </trkpt>
      <trkpt lat="46.09820000" lon="1.352460000">
        <ele>334.00000</ele>
        <time>2019-01-10T18:48:31Z</time>
      </trkpt>
      <trkpt lat="46.09849000" lon="1.352600000">
        <ele>335.00000</ele>
        <time>2019-01-10T18:49:31Z</time>
      </trkpt>
      <trkpt lat="46.09873000" lon="1.352790000">
        <ele>336.00000</ele>
        <time>2019-01-10T18:50:31Z</time>
      </trkpt>
      <trkpt lat="46.09894000" lon="1.352920000">
        <ele>336.00000</ele>
        <time>2019-01-10T18:51:31Z</time>
      </trkpt>
      <trkpt lat="46.09925000" lon="1.352930000">
        <ele>336.00000</ele>
        <time>2019-01-10T18:52:31Z</time>
      </trkpt>
      <trkpt lat="46.09948000" lon="1.352780000">
        <ele>335.00000</ele>
        <time>2019-01-10T18:53:31Z</time>
      </trkpt>
      <trkpt lat="46.09998000" lon="1.352720000">
        <ele>335.00000</ele>
        <time>2019-01-10T18:54:31Z</time>
      </trkpt>
      <trkpt lat="46.10033000" lon="1.352690000">
        <ele>334.00000</ele>
        <time>2019-01-10T18:55:31Z</time>
      </trkpt>
      <trkpt lat="46.10061000" lon="1.352760000">
        <ele>334.00000</ele>
        <time>2019-01-10T18:56:31Z</time>
      </trkpt>
      <trkpt lat="46.10076000" lon="1.352850000">
        <ele>334.00000</ele>
        <time>2019-01-10T18:57:31Z</time>
      </trkpt>
      <trkpt lat="46.10085000" lon="1.353000000">
        <ele>335.00000</ele>
        <time>2019-01-10T18:58:31Z</time>
      </trkpt>
      <trkpt lat="46.10088000" lon="1.353210000">
        <ele>335.00000</ele>
        <time>2019-01-10T18:59:31Z</time>
      </trkpt>
      <trkpt lat="46.10080000" lon="1.353410000">
        <ele>336.00000</ele>
        <time>2019-01-10T19:00:31Z</time>
      </trkpt>
      <trkpt lat="46.10066000" lon="1.353500000">
        <ele>337.00000</ele>
        <time>2019-01-10T19:01:31Z</time>
      </trkpt>
      <trkpt lat="46.10057000" lon="1.353730000">
        <ele>338.00000</ele>
        <time>2019-01-10T19:02:31Z</time>
      </trkpt>
      <trkpt lat="46.10050000" lon="1.353980000">
        <ele>340.00000</ele>
        <time>2019-01-10T19:03:31Z</time>
      </trkpt>
      <trkpt lat="46.10045000" lon="1.354320000">
        <ele>341.00000</ele>
        <time>2019-01-10T19:04:31Z</time>
      </trkpt>
      <trkpt lat="46.10030000" lon="1.354480000">
        <ele>342.00000</ele>
        <time>2019-01-10T19:05:31Z</time>
      </trkpt>
      <trkpt lat="46.10028000" lon="1.354920000">
        <ele>345.00000</ele>
        <time>2019-01-10T19:06:31Z</time>
      </trkpt>
      <trkpt lat="46.10021000" lon="1.355550000">
        <ele>346.00000</ele>
        <time>2019-01-10T19:07:31Z</time>
      </trkpt>
      <trkpt lat="46.09956000" lon="1.355850000">
        <ele>348.00000</ele>
        <time>2019-01-10T19:08:31Z</time>
      </trkpt>
      <trkpt lat="46.09897000" lon="1.356010000">
        <ele>350.00000</ele>
        <time>2019-01-10T19:09:31Z</time>
      </trkpt>
      <trkpt lat="46.09881000" lon="1.356160000">
        <ele>351.00000</ele>
        <time>2019-01-10T19:10:31Z</time>
      </trkpt>
      <trkpt lat="46.09867000" lon="1.356330000">
        <ele>351.00000</ele>
        <time>2019-01-10T19:11:31Z</time>
      </trkpt>
      <trkpt lat="46.09850000" lon="1.356460000">
        <ele>352.00000</ele>
        <time>2019-01-10T19:12:31Z</time>
      </trkpt>
      <trkpt lat="46.09800000" lon="1.356590000">
        <ele>355.00000</ele>
        <time>2019-01-10T19:13:31Z</time>
      </trkpt>
      <trkpt lat="46.09771000" lon="1.356610000">
        <ele>357.00000</ele>
        <time>2019-01-10T19:14:31Z</time>
      </trkpt>
      <trkpt lat="46.09737000" lon="1.356500000">
        <ele>359.00000</ele>
        <time>2019-01-10T19:15:31Z</time>
      </trkpt>



Partager le fichier

Télécharger StPardoux2019 30.gpx

Télécharger le fichier (87 Ko)